In Rescue
 
Open Full Screen Window  High Contrast Mode
Wind Gusting 00 knots
10
March 19, 2019 5:44 PM CDT
Weather Information
Wind Direction
  210 °
Wind Speed
  10 kt (12 mph)
Wind Gust
  00 kt (0 mph)
Altimeter
30.15 in
Visibility
10 SM
Temperature
07° C
45° F
Dewpoint
00° C
32° F
Humidity
61%
1hr Rain Fall
00.00 in.
24hr Rain Fall
00.00 in.
Sky Condition
Missing
VFR

METAR K21D 192244Z AUTO 21010KT 10SM 07/00 A3015 RMK AO2

FAA Disclaimer: The data displayed is for advisory purposes only and is not to be used for flight planning or operations.
Missing Cloud Data